createdAt,value
2019-04-10T00:00:39.073Z,7.71
2019-04-10T00:01:38.091Z,7.59
2019-04-10T00:02:38.109Z,7.54
2019-04-10T00:03:41.788Z,7.63
2019-04-10T00:04:39.097Z,7.56
2019-04-10T00:05:38.237Z,7.52
2019-04-10T00:06:38.203Z,7.52
2019-04-10T00:07:38.241Z,7.47
2019-04-10T00:08:38.623Z,7.47
2019-04-10T00:09:39.219Z,7.47
2019-04-10T00:10:38.366Z,7.58
2019-04-10T00:11:38.327Z,7.52
2019-04-10T00:12:38.884Z,7.52
2019-04-10T00:13:38.584Z,7.47
2019-04-10T00:14:38.699Z,7.40
2019-04-10T00:15:38.422Z,7.44
2019-04-10T00:16:38.462Z,7.31
2019-04-10T00:17:38.473Z,7.39
2019-04-10T00:18:38.502Z,7.40
2019-04-10T00:19:38.522Z,7.40
2019-04-10T00:20:38.547Z,7.31
2019-04-10T00:21:39.662Z,7.33
2019-04-10T00:22:38.597Z,7.30
2019-04-10T00:23:39.474Z,7.27
2019-04-10T00:24:38.644Z,7.34
2019-04-10T00:25:39.233Z,7.31
2019-04-10T00:26:39.526Z,7.23
2019-04-10T00:27:38.988Z,7.19
2019-04-10T00:28:39.332Z,7.27
2019-04-10T00:29:38.764Z,7.18
2019-04-10T00:30:38.790Z,7.18
2019-04-10T00:31:38.826Z,7.22
2019-04-10T00:32:38.842Z,7.19
2019-04-10T00:33:38.867Z,7.15
2019-04-10T00:34:39.948Z,7.15
2019-04-10T00:35:39.420Z,7.04
2019-04-10T00:36:39.406Z,7.08
2019-04-10T00:37:38.960Z,7.04
2019-04-10T00:38:39.905Z,7.08
2019-04-10T00:39:39.045Z,6.98
2019-04-10T00:40:39.500Z,7.00
2019-04-10T00:41:39.059Z,7.00
2019-04-10T00:42:39.169Z,6.98
2019-04-10T00:43:40.076Z,7.05
2019-04-10T00:44:39.647Z,6.95
2019-04-10T00:45:39.781Z,6.95
2019-04-10T00:46:40.089Z,6.91
2019-04-10T00:47:39.349Z,7.12
2019-04-10T00:48:39.738Z,7.09
2019-04-10T00:49:39.976Z,6.98
2019-04-10T00:50:39.275Z,6.98
2019-04-10T00:51:39.529Z,6.93
2019-04-10T00:52:39.323Z,6.93
2019-04-10T00:53:39.344Z,6.97
2019-04-10T00:54:39.369Z,6.90
2019-04-10T00:55:39.789Z,6.93
2019-04-10T00:56:39.417Z,6.83
2019-04-10T00:57:39.444Z,6.91
2019-04-10T00:58:39.617Z,6.90
2019-04-10T00:59:40.027Z,6.90
2019-04-10T01:00:39.514Z,6.88
2019-04-10T01:01:40.263Z,6.85
2019-04-10T01:02:39.560Z,6.88
2019-04-10T01:03:40.056Z,6.86
2019-04-10T01:04:39.609Z,6.85
2019-04-10T01:05:39.697Z,6.70
2019-04-10T01:06:39.906Z,6.79
2019-04-10T01:07:42.747Z,6.76
2019-04-10T01:08:40.526Z,6.82
2019-04-10T01:09:39.739Z,6.79
2019-04-10T01:10:39.757Z,6.78
2019-04-10T01:11:39.778Z,6.76
2019-04-10T01:12:40.532Z,6.75
2019-04-10T01:13:39.835Z,6.67
2019-04-10T01:14:40.083Z,6.68
2019-04-10T01:15:39.878Z,6.64
2019-04-10T01:16:39.902Z,6.58
2019-04-10T01:17:40.275Z,6.65
2019-04-10T01:18:39.950Z,6.62
2019-04-10T01:19:40.174Z,6.65
2019-04-10T01:20:40.001Z,6.61
2019-04-10T01:21:40.016Z,6.61
2019-04-10T01:22:40.045Z,6.62
2019-04-10T01:23:40.072Z,6.64
2019-04-10T01:25:27.650Z,6.55
2019-04-10T01:26:28.292Z,6.57
2019-04-10T01:27:27.836Z,6.55
2019-04-10T01:28:27.719Z,6.54
2019-04-10T01:29:27.738Z,6.46
2019-04-10T01:30:28.544Z,6.34
2019-04-10T01:31:28.820Z,6.44
2019-04-10T01:32:27.983Z,6.40
2019-04-10T01:33:28.330Z,6.42
2019-04-10T01:34:27.868Z,6.39
2019-04-10T01:35:27.881Z,6.42
2019-04-10T01:36:28.998Z,6.43
2019-04-10T01:37:28.869Z,6.40
2019-04-10T01:38:27.954Z,6.37
2019-04-10T01:39:28.517Z,6.31
2019-04-10T01:40:28.920Z,6.36
2019-04-10T01:41:28.025Z,6.29
2019-04-10T01:42:28.374Z,6.31
2019-04-10T01:43:28.073Z,6.28
2019-04-10T01:44:28.871Z,6.29
2019-04-10T01:45:29.090Z,6.25
2019-04-10T01:46:28.500Z,6.21
2019-04-10T01:47:28.915Z,6.20
2019-04-10T01:48:28.190Z,6.24
2019-04-10T01:49:29.385Z,6.26
2019-04-10T01:50:28.612Z,6.07
2019-04-10T01:51:28.273Z,6.24
2019-04-10T01:52:28.997Z,6.24
2019-04-10T01:53:28.310Z,6.20
2019-04-10T01:54:28.337Z,6.13
2019-04-10T01:55:31.227Z,6.13
2019-04-10T01:56:31.831Z,6.10
2019-04-10T01:57:28.493Z,6.13
2019-04-10T01:58:29.343Z,6.03
2019-04-10T01:59:28.456Z,5.99
2019-04-10T02:00:28.484Z,6.07
2019-04-10T02:01:28.502Z,6.02
2019-04-10T02:02:29.472Z,6.02
2019-04-10T02:03:28.549Z,5.91
2019-04-10T02:04:28.947Z,5.95
2019-04-10T02:05:28.600Z,5.88
2019-04-10T02:06:29.455Z,5.98
2019-04-10T02:07:29.849Z,5.84
2019-04-10T02:08:29.779Z,5.89
2019-04-10T02:09:29.737Z,5.87
2019-04-10T02:10:28.713Z,5.89
2019-04-10T02:11:28.742Z,5.82
2019-04-10T02:12:28.766Z,5.75
2019-04-10T02:13:29.692Z,5.81
2019-04-10T02:14:28.811Z,5.84
2019-04-10T02:15:28.832Z,5.82
2019-04-10T02:16:28.855Z,5.84
2019-04-10T02:17:28.884Z,5.82
2019-04-10T02:18:29.646Z,5.81
2019-04-10T02:19:28.929Z,5.82
2019-04-10T02:20:29.205Z,5.73
2019-04-10T02:21:28.975Z,5.77
2019-04-10T02:22:28.998Z,5.77
2019-04-10T02:23:30.193Z,5.69
2019-04-10T02:24:29.364Z,5.67
2019-04-10T02:25:29.078Z,5.70
2019-04-10T02:26:29.707Z,5.63
2019-04-10T02:27:30.029Z,5.69
2019-04-10T02:28:29.187Z,5.66
2019-04-10T02:29:29.168Z,5.69
2019-04-10T02:30:30.343Z,5.62
2019-04-10T02:31:30.623Z,5.62
2019-04-10T02:32:34.388Z,5.66
2019-04-10T02:33:29.452Z,5.60
2019-04-10T02:34:30.686Z,5.60
2019-04-10T02:35:29.777Z,5.63
2019-04-10T02:36:31.511Z,5.62
2019-04-10T02:37:33.163Z,5.55
2019-04-10T02:38:44.843Z,5.60
2019-04-10T02:39:36.160Z,5.59
2019-04-10T02:40:30.877Z,5.62
2019-04-10T02:41:29.858Z,5.55
2019-04-10T02:42:30.180Z,5.51
2019-04-10T02:43:29.509Z,5.49
2019-04-10T02:44:30.619Z,5.45
2019-04-10T02:45:30.173Z,5.52
2019-04-10T02:46:31.274Z,5.54
2019-04-10T02:47:30.684Z,5.48
2019-04-10T02:48:29.772Z,5.48
2019-04-10T02:49:30.005Z,5.46
2019-04-10T02:50:31.150Z,5.44
2019-04-10T02:51:30.636Z,5.42
2019-04-10T02:52:30.846Z,5.41
2019-04-10T02:53:29.774Z,5.39
2019-04-10T02:54:29.756Z,5.42
2019-04-10T02:55:31.264Z,5.44
2019-04-10T02:56:30.776Z,5.41
2019-04-10T02:57:29.824Z,5.30
2019-04-10T02:58:30.020Z,5.34
2019-04-10T02:59:31.050Z,5.27
2019-04-10T03:00:30.346Z,5.23
2019-04-10T03:01:31.197Z,5.30
2019-04-10T03:02:31.013Z,5.27
2019-04-10T03:03:30.087Z,5.26
2019-04-10T03:04:31.076Z,5.18
2019-04-10T03:05:30.364Z,5.18
2019-04-10T03:06:31.157Z,5.24
2019-04-10T03:07:31.714Z,5.28
2019-04-10T03:08:44.674Z,5.21
2019-04-10T03:09:44.501Z,5.23
2019-04-10T03:10:40.452Z,5.24
2019-04-10T03:11:31.209Z,5.26
2019-04-10T03:12:30.232Z,5.18
2019-04-10T03:13:31.051Z,5.18
2019-04-10T03:14:30.240Z,5.24
2019-04-10T03:15:31.480Z,5.21
2019-04-10T03:16:31.230Z,5.13
2019-04-10T03:17:30.314Z,5.20
2019-04-10T03:18:30.559Z,5.16
2019-04-10T03:19:30.343Z,5.21
2019-04-10T03:20:30.374Z,5.18
2019-04-10T03:21:31.272Z,5.13
2019-04-10T03:22:30.415Z,5.15
2019-04-10T03:23:31.430Z,5.10
2019-04-10T03:24:31.486Z,5.10
2019-04-10T03:25:30.483Z,4.92
2019-04-10T03:26:30.510Z,4.98
2019-04-10T03:27:30.529Z,4.95
2019-04-10T03:28:32.007Z,5.00
2019-04-10T03:29:31.571Z,4.97
2019-04-10T03:30:32.457Z,4.92
2019-04-10T03:32:14.677Z,4.90
2019-04-10T03:33:19.111Z,4.91
2019-04-10T03:34:14.316Z,4.95
2019-04-10T03:35:13.243Z,4.97
2019-04-10T03:36:13.653Z,4.92
2019-04-10T03:37:13.291Z,5.00
2019-04-10T03:38:14.663Z,4.91
2019-04-10T03:39:13.337Z,4.88
2019-04-10T03:40:13.392Z,4.85
2019-04-10T03:41:13.394Z,4.91
2019-04-10T03:42:13.406Z,4.85
2019-04-10T03:43:13.954Z,4.83
2019-04-10T03:45:16.048Z,4.74
2019-04-10T03:46:16.069Z,4.79
2019-04-10T03:47:16.089Z,4.78
2019-04-10T03:48:58.666Z,4.71
2019-04-10T03:49:58.682Z,4.76
2019-04-10T03:50:58.791Z,4.85
2019-04-10T03:51:58.888Z,4.90
2019-04-10T03:52:58.750Z,4.83
2019-04-10T03:53:58.775Z,4.84
2019-04-10T03:54:58.805Z,4.87
2019-04-10T03:55:59.180Z,4.76
2019-04-10T03:56:58.846Z,4.84
2019-04-10T03:57:58.875Z,4.83
2019-04-10T03:58:59.875Z,4.72
2019-04-10T03:59:59.030Z,4.74
2019-04-10T04:00:58.937Z,4.88
2019-04-10T04:01:59.688Z,4.84
2019-04-10T04:02:58.986Z,4.76
2019-04-10T04:03:59.404Z,4.68
2019-04-10T04:04:59.096Z,4.65
2019-04-10T04:06:00.032Z,4.69
2019-04-10T04:06:59.908Z,4.58
2019-04-10T04:07:59.222Z,4.61
2019-04-10T04:09:06.883Z,4.58
2019-04-10T04:10:00.163Z,4.61
2019-04-10T04:10:59.409Z,4.48
2019-04-10T04:11:59.193Z,4.60
2019-04-10T04:13:00.134Z,4.51
2019-04-10T04:13:59.816Z,4.48
2019-04-10T04:14:59.272Z,4.47
2019-04-10T04:16:00.219Z,4.46
2019-04-10T04:16:59.776Z,4.42
2019-04-10T04:18:00.328Z,4.33
2019-04-10T04:18:59.738Z,4.36
2019-04-10T04:19:59.382Z,4.42
2019-04-10T04:20:59.411Z,4.44
2019-04-10T04:22:00.532Z,4.44
2019-04-10T04:22:59.456Z,4.44
2019-04-10T04:23:59.500Z,4.35
2019-04-10T04:25:00.274Z,4.38
2019-04-10T04:25:59.526Z,4.28
2019-04-10T04:27:00.526Z,4.26
2019-04-10T04:28:00.456Z,4.29
2019-04-10T04:28:59.944Z,4.14
2019-04-10T04:29:59.709Z,4.18
2019-04-10T04:30:59.640Z,4.12
2019-04-10T04:31:59.660Z,4.15
2019-04-10T04:32:59.688Z,4.11
2019-04-10T04:33:59.831Z,4.14
2019-04-10T04:34:59.873Z,4.17
2019-04-10T04:35:59.955Z,4.15
2019-04-10T04:37:00.351Z,4.17
2019-04-10T04:38:00.465Z,4.08
2019-04-10T04:39:00.016Z,4.10
2019-04-10T04:40:00.440Z,4.10
2019-04-10T04:41:00.392Z,4.11
2019-04-10T04:42:00.846Z,4.12
2019-04-10T04:43:00.186Z,4.10
2019-04-10T04:43:59.939Z,4.17
2019-04-10T04:46:03.294Z,4.21
2019-04-10T04:47:03.406Z,4.20
2019-04-10T04:48:02.599Z,4.11
2019-04-10T04:49:02.624Z,4.12
2019-04-10T04:50:03.575Z,4.10
2019-04-10T04:51:03.278Z,4.14
2019-04-10T04:52:02.704Z,4.03
2019-04-10T04:53:02.715Z,3.99
2019-04-10T04:54:02.742Z,4.07
2019-04-10T04:55:03.855Z,3.99
2019-04-10T04:56:03.797Z,3.97
2019-04-10T04:57:02.804Z,3.89
2019-04-10T04:58:02.833Z,3.89
2019-04-10T04:59:03.625Z,3.82
2019-04-10T05:00:03.247Z,3.92
2019-04-10T05:01:02.905Z,3.94
2019-04-10T05:02:03.415Z,3.85
2019-04-10T05:03:03.780Z,3.92
2019-04-10T05:04:02.969Z,3.89
2019-04-10T05:05:02.994Z,3.93
2019-04-10T05:06:03.814Z,3.96
2019-04-10T05:07:04.159Z,3.85
2019-04-10T05:08:05.420Z,3.90
2019-04-10T05:09:03.083Z,4.08
2019-04-10T05:10:03.109Z,3.97
2019-04-10T05:11:04.246Z,4.04
2019-04-10T05:12:03.160Z,4.07
2019-04-10T05:13:04.039Z,3.97
2019-04-10T05:14:03.199Z,4.04
2019-04-10T05:15:03.227Z,3.90
2019-04-10T05:16:03.245Z,3.94
2019-04-10T05:17:03.891Z,3.93
2019-04-10T05:18:04.046Z,3.94
2019-04-10T05:19:03.787Z,3.97
2019-04-10T05:20:03.343Z,3.97
2019-04-10T05:21:03.364Z,3.94
2019-04-10T05:22:03.389Z,4.00
2019-04-10T05:23:04.109Z,4.02
2019-04-10T05:24:03.436Z,4.00
2019-04-10T05:25:03.456Z,4.00
2019-04-10T05:26:03.479Z,4.00
2019-04-10T05:27:03.594Z,4.08
2019-04-10T05:28:03.653Z,4.08
2019-04-10T05:29:04.645Z,3.97
2019-04-10T05:30:04.147Z,3.97
2019-04-10T05:31:03.592Z,3.99
2019-04-10T05:32:03.633Z,4.04
2019-04-10T05:33:04.082Z,4.04
2019-04-10T05:34:03.667Z,4.11
2019-04-10T05:35:05.789Z,4.02
2019-04-10T05:36:04.694Z,4.00
2019-04-10T05:37:03.734Z,4.02
2019-04-10T05:38:04.531Z,4.03
2019-04-10T05:39:03.783Z,4.11
2019-04-10T05:40:03.803Z,4.00
2019-04-10T05:41:04.752Z,4.12
2019-04-10T05:42:04.280Z,4.11
2019-04-10T05:43:03.876Z,4.17
2019-04-10T05:44:03.894Z,4.24
2019-04-10T05:45:04.918Z,4.26
2019-04-10T05:46:04.911Z,4.33
2019-04-10T05:47:03.965Z,4.32
2019-04-10T05:48:03.989Z,4.22
2019-04-10T05:49:04.435Z,4.29
2019-04-10T05:50:04.084Z,4.26
2019-04-10T05:51:06.399Z,4.29
2019-04-10T05:52:04.263Z,4.28
2019-04-10T05:53:04.381Z,4.29
2019-04-10T05:54:04.321Z,4.38
2019-04-10T05:55:04.219Z,4.38
2019-04-10T05:56:04.177Z,4.39
2019-04-10T05:57:04.227Z,4.40
2019-04-10T05:58:05.012Z,4.39
2019-04-10T05:59:05.175Z,4.29
2019-04-10T06:00:04.757Z,4.36
2019-04-10T06:01:05.360Z,4.40
2019-04-10T06:02:05.137Z,4.35
2019-04-10T06:03:04.337Z,4.44
2019-04-10T06:04:05.135Z,4.44
2019-04-10T06:05:05.573Z,4.36
2019-04-10T06:06:04.404Z,4.39
2019-04-10T06:07:05.251Z,4.32
2019-04-10T06:08:04.451Z,4.38
2019-04-10T06:09:04.536Z,4.35
2019-04-10T06:10:07.284Z,4.44
2019-04-10T06:11:04.577Z,4.50
2019-04-10T06:12:05.800Z,4.54
2019-04-10T06:13:04.713Z,4.53
2019-04-10T06:14:05.268Z,4.51
2019-04-10T06:15:04.626Z,4.35
2019-04-10T06:16:05.648Z,4.39
2019-04-10T06:17:05.857Z,4.46
2019-04-10T06:18:04.993Z,4.53
2019-04-10T06:19:04.706Z,4.46
2019-04-10T06:20:05.019Z,4.44
2019-04-10T06:21:05.073Z,4.42
2019-04-10T06:22:05.250Z,4.56
2019-04-10T06:23:05.251Z,4.53
2019-04-10T06:24:05.829Z,4.64
2019-04-10T06:25:07.861Z,4.78
2019-04-10T06:26:05.700Z,5.21
2019-04-10T06:27:04.930Z,5.62
2019-04-10T06:28:05.350Z,6.15
2019-04-10T06:29:04.942Z,6.29
2019-04-10T06:30:05.715Z,6.55
2019-04-10T06:31:06.148Z,6.65
2019-04-10T06:32:05.361Z,6.86
2019-04-10T06:33:05.042Z,6.73
2019-04-10T06:34:05.061Z,6.82
2019-04-10T06:35:05.780Z,7.00
2019-04-10T06:36:05.111Z,7.12
2019-04-10T06:37:06.152Z,7.21
2019-04-10T06:38:06.355Z,7.21
2019-04-10T06:39:05.181Z,7.44
2019-04-10T06:40:14.308Z,7.67
2019-04-10T06:41:06.249Z,7.86
2019-04-10T06:42:06.508Z,7.73
2019-04-10T06:43:06.493Z,7.77
2019-04-10T06:44:05.759Z,7.92
2019-04-10T06:45:05.756Z,7.96
2019-04-10T06:46:06.407Z,8.17
2019-04-10T06:47:06.398Z,8.14
2019-04-10T06:48:05.406Z,8.42
2019-04-10T06:49:06.104Z,8.21
2019-04-10T06:50:06.470Z,8.28
2019-04-10T06:51:06.132Z,8.39
2019-04-10T06:52:06.078Z,8.68
2019-04-10T06:53:06.315Z,8.82
2019-04-10T06:54:09.903Z,8.95
2019-04-10T06:55:05.591Z,8.65
2019-04-10T06:56:05.624Z,8.44
2019-04-10T06:57:06.343Z,8.53
2019-04-10T06:58:05.679Z,8.60
2019-04-10T06:59:06.685Z,8.87
2019-04-10T07:00:06.364Z,9.05
2019-04-10T07:01:06.345Z,9.35
2019-04-10T07:02:16.607Z,9.27
2019-04-10T07:03:06.511Z,9.32
2019-04-10T07:04:08.029Z,9.05
2019-04-10T07:05:08.768Z,9.14
2019-04-10T07:06:14.411Z,9.60
2019-04-10T07:07:10.708Z,9.60
2019-04-10T07:08:12.470Z,9.81
2019-04-10T07:09:06.027Z,9.77
2019-04-10T07:10:20.494Z,10.02
2019-04-10T07:11:10.088Z,9.96
2019-04-10T07:12:06.052Z,10.10
2019-04-10T07:13:08.695Z,10.25
2019-04-10T07:14:10.226Z,10.10
2019-04-10T07:15:06.228Z,9.90
2019-04-10T07:16:06.255Z,9.88
2019-04-10T07:17:07.503Z,9.74
2019-04-10T07:18:10.320Z,9.77
2019-04-10T07:19:09.847Z,9.64
2019-04-10T07:20:07.347Z,9.75
2019-04-10T07:21:06.468Z,9.62
2019-04-10T07:22:11.930Z,9.85
2019-04-10T07:23:06.995Z,9.74
2019-04-10T07:24:08.315Z,9.71
2019-04-10T07:25:09.294Z,9.85
2019-04-10T07:26:06.450Z,10.13
2019-04-10T07:27:07.715Z,10.32
2019-04-10T07:28:08.649Z,10.49
2019-04-10T07:29:06.728Z,10.47
2019-04-10T07:30:07.636Z,10.58
2019-04-10T07:31:08.434Z,10.69
2019-04-10T07:32:08.660Z,10.79
2019-04-10T07:33:07.588Z,10.85
2019-04-10T07:34:06.821Z,10.90
2019-04-10T07:35:06.813Z,11.06
2019-04-10T07:36:10.281Z,11.16
2019-04-10T07:37:08.526Z,11.28
2019-04-10T07:38:07.744Z,11.76
2019-04-10T07:39:07.690Z,11.82
2019-04-10T07:40:07.959Z,11.75
2019-04-10T07:41:13.696Z,11.68
2019-04-10T07:42:06.916Z,11.46
2019-04-10T07:43:06.945Z,11.43
2019-04-10T07:44:07.934Z,11.63
2019-04-10T07:45:07.005Z,11.49
2019-04-10T07:46:07.040Z,11.85
2019-04-10T07:47:07.070Z,11.86
2019-04-10T07:48:07.095Z,11.97
2019-04-10T07:49:07.127Z,12.23
2019-04-10T07:50:08.746Z,12.41
2019-04-10T07:51:07.181Z,12.53
2019-04-10T07:52:08.253Z,12.36
2019-04-10T07:53:08.254Z,12.23
2019-04-10T07:54:08.179Z,11.97
2019-04-10T07:55:08.511Z,11.91
2019-04-10T07:56:12.828Z,11.57
2019-04-10T07:57:08.327Z,12.03
2019-04-10T07:58:07.391Z,12.44
2019-04-10T07:59:10.941Z,12.26
2019-04-10T08:00:07.455Z,12.26
2019-04-10T08:01:07.912Z,12.29
2019-04-10T08:02:08.832Z,12.77
2019-04-10T08:03:08.320Z,13.14
2019-04-10T08:04:08.303Z,13.13
2019-04-10T08:05:08.187Z,13.36
2019-04-10T08:06:07.639Z,13.55
2019-04-10T08:07:07.669Z,13.20
2019-04-10T08:08:08.699Z,13.37
2019-04-10T08:09:08.370Z,13.50
2019-04-10T08:10:07.953Z,13.37
2019-04-10T08:11:07.792Z,13.29
2019-04-10T08:12:07.822Z,13.10
2019-04-10T08:13:08.583Z,13.19
2019-04-10T08:14:08.447Z,13.44
2019-04-10T08:15:09.005Z,13.60
2019-04-10T08:16:08.268Z,13.68
2019-04-10T08:17:08.045Z,13.79
2019-04-10T08:18:08.012Z,13.88
2019-04-10T08:19:08.308Z,14.06
2019-04-10T08:20:08.082Z,14.06
2019-04-10T08:21:08.103Z,14.16
2019-04-10T08:22:08.318Z,14.27
2019-04-10T08:23:08.938Z,13.95
2019-04-10T08:25:06.485Z,14.15
2019-04-10T08:26:49.242Z,14.41
2019-04-10T08:27:48.407Z,14.06
2019-04-10T08:28:49.594Z,14.20
2019-04-10T08:29:48.554Z,13.93
2019-04-10T08:30:48.499Z,13.90
2019-04-10T08:31:48.533Z,14.26
2019-04-10T08:32:57.248Z,13.73
2019-04-10T08:33:48.600Z,13.42
2019-04-10T08:34:49.808Z,14.23
2019-04-10T08:35:49.517Z,14.44
2019-04-10T08:36:51.445Z,14.03
2019-04-10T08:37:48.888Z,14.21
2019-04-10T08:38:48.999Z,14.44
2019-04-10T08:39:49.868Z,14.85
2019-04-10T08:40:48.823Z,15.02
2019-04-10T08:41:48.859Z,15.38
2019-04-10T08:42:49.193Z,15.43
2019-04-10T08:43:50.001Z,15.52
2019-04-10T08:44:48.953Z,15.20
2019-04-10T08:45:52.099Z,15.40
2019-04-10T08:46:49.019Z,15.55
2019-04-10T08:47:49.058Z,15.83
2019-04-10T08:48:49.804Z,16.32
2019-04-10T08:49:49.452Z,16.22
2019-04-10T08:50:50.275Z,16.63
2019-04-10T08:51:50.005Z,17.81
2019-04-10T08:52:49.221Z,18.51
2019-04-10T08:53:49.247Z,18.96
2019-04-10T08:54:49.277Z,19.43
2019-04-10T08:55:50.420Z,19.64
2019-04-10T08:56:49.342Z,19.20
2019-04-10T08:57:50.791Z,18.96
2019-04-10T08:58:53.041Z,17.55
2019-04-10T08:59:49.441Z,17.10
2019-04-10T09:00:50.976Z,16.51
2019-04-10T09:01:49.507Z,15.71
2019-04-10T09:02:50.486Z,15.78
2019-04-10T09:03:49.573Z,15.80
2019-04-10T09:04:49.610Z,15.84
2019-04-10T09:05:49.642Z,15.81
2019-04-10T09:06:49.689Z,16.00
2019-04-10T09:07:50.663Z,15.92
2019-04-10T09:08:50.860Z,16.14
2019-04-10T09:09:49.959Z,16.26
2019-04-10T09:10:50.420Z,16.22
2019-04-10T09:11:49.839Z,16.00
2019-04-10T09:12:49.886Z,15.98
2019-04-10T09:13:49.912Z,15.80
2019-04-10T09:14:49.942Z,15.73
2019-04-10T09:15:50.040Z,15.74
2019-04-10T09:16:51.050Z,15.92
2019-04-10T09:17:50.042Z,16.14
2019-04-10T09:18:50.077Z,15.80
2019-04-10T09:19:50.112Z,16.26
2019-04-10T09:20:51.006Z,15.77
2019-04-10T09:21:52.001Z,15.37
2019-04-10T09:23:13.421Z,15.70
2019-04-10T09:23:53.391Z,16.18
2019-04-10T09:24:50.791Z,16.77
2019-04-10T09:25:51.262Z,16.90
2019-04-10T09:26:50.807Z,16.97
2019-04-10T09:27:50.381Z,17.17
2019-04-10T09:28:50.774Z,17.00
2019-04-10T09:29:50.453Z,16.95
2019-04-10T09:30:51.327Z,16.48
2019-04-10T09:31:50.516Z,16.49
2019-04-10T09:32:50.748Z,16.33
2019-04-10T09:33:51.519Z,16.70
2019-04-10T09:34:50.623Z,16.44
2019-04-10T09:35:50.928Z,16.65
2019-04-10T09:36:51.416Z,16.49
2019-04-10T09:37:50.724Z,16.77
2019-04-10T09:38:50.963Z,17.09
2019-04-10T09:39:52.379Z,17.07
2019-04-10T09:40:50.823Z,16.49
2019-04-10T09:41:50.854Z,16.44
2019-04-10T09:42:52.063Z,16.33
2019-04-10T09:43:50.925Z,16.42
2019-04-10T09:44:50.965Z,16.74
2019-04-10T09:45:51.467Z,16.49
2019-04-10T09:46:51.685Z,16.47
2019-04-10T09:47:52.239Z,16.95
2019-04-10T09:48:51.974Z,16.99
2019-04-10T09:49:51.431Z,16.67
2019-04-10T09:50:51.164Z,16.88
2019-04-10T09:51:51.297Z,17.05
2019-04-10T09:52:52.106Z,17.52
2019-04-10T09:53:51.272Z,17.63
2019-04-10T09:54:51.304Z,17.35
2019-04-10T09:55:52.351Z,17.02
2019-04-10T09:56:51.387Z,16.94
2019-04-10T10:28:18.667Z,18.27
2019-04-10T10:29:17.693Z,17.90
2019-04-10T10:30:17.661Z,18.03
2019-04-10T10:31:17.650Z,18.16
2019-04-10T10:32:17.681Z,18.06
2019-04-10T10:33:17.720Z,17.84
2019-04-10T10:34:18.480Z,17.74
2019-04-10T10:35:18.820Z,18.31
2019-04-10T10:36:17.876Z,18.13
2019-04-10T10:37:18.682Z,17.94
2019-04-10T10:38:18.960Z,17.71
2019-04-10T10:39:19.036Z,17.68
2019-04-10T10:40:17.956Z,17.54
2019-04-10T10:41:18.169Z,17.74
2019-04-10T10:42:19.214Z,17.63
2019-04-10T10:43:18.375Z,17.68
2019-04-10T10:44:18.097Z,17.81
2019-04-10T10:45:18.621Z,17.81
2019-04-10T10:46:19.615Z,17.99
2019-04-10T10:47:18.204Z,17.84
2019-04-10T10:48:18.234Z,18.24
2019-04-10T10:49:18.267Z,17.88
2019-04-10T10:50:19.259Z,17.71
2019-04-10T10:51:18.408Z,17.83
2019-04-10T10:52:19.395Z,18.17
2019-04-10T10:53:18.404Z,18.26
2019-04-10T10:54:18.904Z,18.81
2019-04-10T10:55:18.476Z,18.60
2019-04-10T10:56:18.508Z,17.95
2019-04-10T10:57:19.362Z,17.96
2019-04-10T10:58:19.635Z,18.20
2019-04-10T10:59:19.605Z,18.06
2019-04-10T11:00:18.930Z,18.47
2019-04-10T11:01:19.905Z,18.66
2019-04-10T11:02:19.226Z,18.87
2019-04-10T11:03:18.753Z,18.65
2019-04-10T11:04:19.119Z,18.75
2019-04-10T11:05:19.099Z,18.27
2019-04-10T11:06:19.329Z,18.19
2019-04-10T11:07:18.895Z,18.41
2019-04-10T11:08:19.128Z,18.65
2019-04-10T11:09:19.736Z,18.96
2019-04-10T11:10:23.683Z,18.49
2019-04-10T11:11:20.018Z,17.06
2019-04-10T11:12:20.079Z,16.07
2019-04-10T11:13:19.098Z,16.72
2019-04-10T11:14:19.219Z,15.83
2019-04-10T11:15:20.080Z,17.09
2019-04-10T11:16:19.201Z,17.49
2019-04-10T11:17:19.938Z,17.54
2019-04-10T11:18:19.299Z,17.42
2019-04-10T11:19:19.835Z,17.10
2019-04-10T11:20:19.938Z,16.62
2019-04-10T11:21:20.611Z,16.97
2019-04-10T11:22:22.608Z,17.84
2019-04-10T11:23:19.653Z,18.13
2019-04-10T11:24:19.654Z,17.65
2019-04-10T11:25:19.619Z,17.35
2019-04-10T11:27:19.573Z,18.10
2019-04-10T11:28:20.651Z,18.39
2019-04-10T11:29:19.647Z,17.76
2019-04-10T11:30:20.605Z,17.62
2019-04-10T11:31:23.790Z,17.43
2019-04-10T11:32:20.008Z,16.08
2019-04-10T11:33:19.774Z,16.52
2019-04-10T11:34:19.973Z,17.50
2019-04-10T11:35:21.640Z,18.06
2019-04-10T11:36:20.201Z,18.38
2019-04-10T11:37:30.814Z,18.63
2019-04-10T11:38:21.352Z,18.89
2019-04-10T11:39:25.514Z,18.93
2019-04-10T11:40:20.998Z,19.20
2019-04-10T11:41:21.017Z,19.07
2019-04-10T11:42:21.192Z,18.82
2019-04-10T11:43:21.591Z,18.38
2019-04-10T11:44:21.674Z,18.51
2019-04-10T11:45:20.215Z,18.10
2019-04-10T11:46:20.215Z,17.81
2019-04-10T11:47:23.610Z,17.94
2019-04-10T11:48:20.273Z,18.54
2019-04-10T11:49:22.936Z,18.29
2019-04-10T11:50:21.934Z,17.87
2019-04-10T11:51:20.923Z,17.58
2019-04-10T11:52:32.033Z,16.85
2019-04-10T11:53:21.481Z,17.38
2019-04-10T11:54:24.829Z,16.99
2019-04-10T11:55:25.358Z,15.96
2019-04-10T11:56:21.208Z,15.37
2019-04-10T11:57:22.748Z,15.30
2019-04-10T11:59:05.785Z,15.45
2019-04-10T12:00:04.310Z,15.34
2019-04-10T12:01:08.255Z,15.27
2019-04-10T12:02:06.487Z,15.91
2019-04-10T12:03:04.760Z,17.09
2019-04-10T12:04:06.678Z,17.30
2019-04-10T12:05:09.501Z,16.65
2019-04-10T12:06:04.442Z,15.98
2019-04-10T12:07:03.826Z,15.23
2019-04-10T12:08:28.049Z,14.90
2019-04-10T12:12:03.639Z,17.21
2019-04-10T12:13:03.619Z,17.36
2019-04-10T12:14:03.654Z,16.44
2019-04-10T12:15:04.022Z,15.55
2019-04-10T12:18:04.477Z,17.79
2019-04-10T12:19:04.715Z,17.58
2019-04-10T12:20:04.808Z,17.79
2019-04-10T12:21:03.875Z,17.58
2019-04-10T12:29:04.482Z,19.49
2019-04-10T12:30:04.793Z,18.01
2019-04-10T12:31:04.195Z,18.31
2019-04-10T12:32:04.267Z,17.52
2019-04-10T12:35:04.699Z,15.31
2019-04-10T12:38:08.130Z,17.06
2019-04-10T12:42:04.554Z,17.76
2019-04-10T12:46:04.678Z,15.31
2019-04-10T12:47:05.737Z,15.13
2019-04-10T12:48:04.741Z,15.83
2019-04-10T12:49:05.358Z,16.69
2019-04-10T12:50:05.807Z,17.24
2019-04-10T12:51:05.614Z,17.79
2019-04-10T12:52:05.881Z,18.10
2019-04-10T12:53:05.341Z,18.54
2019-04-10T12:54:04.932Z,18.32
2019-04-10T12:55:04.969Z,18.10
2019-04-10T12:56:05.967Z,17.86
2019-04-10T12:57:05.024Z,17.80
2019-04-10T12:58:10.829Z,17.86
2019-04-10T12:59:05.088Z,17.57
2019-04-10T13:00:05.125Z,17.03
2019-04-10T13:01:05.151Z,16.94
2019-04-10T13:02:05.188Z,16.99
2019-04-10T13:03:05.251Z,17.25
2019-04-10T13:04:05.435Z,17.30
2019-04-10T13:05:05.289Z,17.18
2019-04-10T13:06:05.356Z,17.40
2019-04-10T13:07:05.451Z,17.79
2019-04-10T13:08:16.057Z,18.24
2019-04-10T13:09:10.237Z,18.50
2019-04-10T13:10:06.466Z,18.44
2019-04-10T13:11:05.467Z,18.06
2019-04-10T13:12:05.498Z,17.57
2019-04-10T13:13:06.039Z,17.58
2019-04-10T13:14:06.395Z,16.67
2019-04-10T13:15:05.594Z,16.84
2019-04-10T13:16:05.728Z,16.08
2019-04-10T13:17:06.723Z,15.45
2019-04-10T13:18:05.995Z,15.77
2019-04-10T13:19:06.914Z,16.92
2019-04-10T13:20:05.750Z,17.36
2019-04-10T13:21:06.343Z,17.49
2019-04-10T13:22:05.809Z,16.39
2019-04-10T13:23:06.656Z,16.10
2019-04-10T13:24:05.872Z,16.48
2019-04-10T13:25:06.102Z,17.21
2019-04-10T13:26:07.679Z,17.54
2019-04-10T13:27:06.227Z,18.02
2019-04-10T13:28:06.000Z,18.11
2019-04-10T13:29:06.024Z,17.95
2019-04-10T13:30:07.017Z,18.38
2019-04-10T13:31:06.087Z,17.95
2019-04-10T13:32:06.119Z,17.36
2019-04-10T13:33:06.690Z,17.20
2019-04-10T13:34:06.192Z,16.84
2019-04-10T13:35:06.212Z,16.88
2019-04-10T13:36:07.212Z,17.07
2019-04-10T13:37:06.281Z,17.13
2019-04-10T13:38:06.720Z,17.17
2019-04-10T13:39:06.702Z,17.13
2019-04-10T13:40:06.363Z,17.45
2019-04-10T13:41:06.396Z,17.40
2019-04-10T13:42:07.281Z,17.47
2019-04-10T13:43:06.462Z,17.24
2019-04-10T13:44:06.633Z,17.15
2019-04-10T13:45:06.927Z,17.30
2019-04-10T13:46:06.783Z,17.32
2019-04-10T13:47:07.108Z,17.03
2019-04-10T13:48:06.610Z,16.77
2019-04-10T13:49:06.641Z,16.36
2019-04-10T13:50:06.687Z,15.86
2019-04-10T13:51:07.500Z,15.78
2019-04-10T13:52:07.801Z,16.07
2019-04-10T13:53:07.878Z,16.11
2019-04-10T13:54:06.796Z,16.22
2019-04-10T13:55:07.414Z,16.32
2019-04-10T13:56:06.858Z,16.47
2019-04-10T13:57:07.768Z,16.54
2019-04-10T13:58:06.918Z,16.74
2019-04-10T13:59:06.947Z,16.59
2019-04-10T14:00:06.985Z,16.91
2019-04-10T14:01:07.251Z,16.92
2019-04-10T14:02:08.915Z,17.05
2019-04-10T14:03:07.270Z,16.94
2019-04-10T14:04:07.147Z,16.49
2019-04-10T14:05:07.385Z,16.63
2019-04-10T14:06:07.535Z,16.17
2019-04-10T14:07:07.478Z,16.06